sensor_id;sensor_type;location;lat;lon;timestamp;pressure;altitude;pressure_sealevel;temperature;humidity
64080;BME280;51042;49.696;10.808;2023-06-22T00:00:19;98584.91;;;18.80;100.00
64080;BME280;51042;49.696;10.808;2023-06-22T00:02:46;98593.41;;;18.70;100.00
64080;BME280;51042;49.696;10.808;2023-06-22T00:05:11;98594.81;;;18.66;100.00
64080;BME280;51042;49.696;10.808;2023-06-22T00:07:36;98608.66;;;18.60;100.00
64080;BME280;51042;49.696;10.808;2023-06-22T00:10:02;98608.09;;;18.56;100.00
64080;BME280;51042;49.696;10.808;2023-06-22T00:12:27;98611.81;;;18.53;100.00
64080;BME280;51042;49.696;10.808;2023-06-22T00:14:53;98601.78;;;18.56;100.00
64080;BME280;51042;49.696;10.808;2023-06-22T00:17:18;98605.09;;;18.60;100.00
64080;BME280;51042;49.696;10.808;2023-06-22T00:19:43;98598.59;;;18.63;100.00
64080;BME280;51042;49.696;10.808;2023-06-22T00:22:12;98600.38;;;18.66;100.00
64080;BME280;51042;49.696;10.808;2023-06-22T00:24:37;98601.91;;;18.67;100.00
64080;BME280;51042;49.696;10.808;2023-06-22T00:27:02;98606.53;;;18.70;100.00
64080;BME280;51042;49.696;10.808;2023-06-22T00:29:30;98619.25;;;18.77;100.00
64080;BME280;51042;49.696;10.808;2023-06-22T00:31:55;98624.59;;;18.80;100.00
64080;BME280;51042;49.696;10.808;2023-06-22T00:34:20;98625.66;;;18.83;100.00
64080;BME280;51042;49.696;10.808;2023-06-22T00:36:46;98641.06;;;18.84;100.00
64080;BME280;51042;49.696;10.808;2023-06-22T00:39:11;98639.06;;;18.84;100.00
64080;BME280;51042;49.696;10.808;2023-06-22T00:41:36;98639.81;;;18.85;100.00
64080;BME280;51042;49.696;10.808;2023-06-22T00:44:02;98640.03;;;18.81;100.00
64080;BME280;51042;49.696;10.808;2023-06-22T00:46:27;98644.06;;;18.80;100.00
64080;BME280;51042;49.696;10.808;2023-06-22T00:48:52;98644.06;;;18.80;100.00
64080;BME280;51042;49.696;10.808;2023-06-22T00:51:22;98646.84;;;18.80;100.00
64080;BME280;51042;49.696;10.808;2023-06-22T00:53:49;98642.75;;;18.75;100.00
64080;BME280;51042;49.696;10.808;2023-06-22T00:56:15;98645.94;;;18.68;100.00
64080;BME280;51042;49.696;10.808;2023-06-22T00:58:44;98643.84;;;18.63;100.00
64080;BME280;51042;49.696;10.808;2023-06-22T01:01:11;98625.25;;;18.55;100.00
64080;BME280;51042;49.696;10.808;2023-06-22T01:03:36;98599.56;;;18.45;100.00
64080;BME280;51042;49.696;10.808;2023-06-22T01:06:13;98575.72;;;18.39;100.00
64080;BME280;51042;49.696;10.808;2023-06-22T01:08:47;98539.38;;;18.22;100.00
64080;BME280;51042;49.696;10.808;2023-06-22T01:11:40;98519.63;;;18.20;100.00
64080;BME280;51042;49.696;10.808;2023-06-22T01:14:11;98535.44;;;18.28;100.00
64080;BME280;51042;49.696;10.808;2023-06-22T01:16:40;98528.97;;;18.37;100.00
64080;BME280;51042;49.696;10.808;2023-06-22T01:21:56;98537.72;;;18.30;100.00
64080;BME280;51042;49.696;10.808;2023-06-22T01:24:37;98551.88;;;18.32;100.00
64080;BME280;51042;49.696;10.808;2023-06-22T01:29:51;98539.06;;;18.34;100.00
64080;BME280;51042;49.696;10.808;2023-06-22T01:32:25;98536.53;;;18.36;100.00
64080;BME280;51042;49.696;10.808;2023-06-22T01:34:55;98538.06;;;18.38;100.00
64080;BME280;51042;49.696;10.808;2023-06-22T01:37:22;98531.47;;;18.35;100.00
64080;BME280;51042;49.696;10.808;2023-06-22T01:39:48;98515.75;;;18.32;100.00
64080;BME280;51042;49.696;10.808;2023-06-22T01:42:14;98513.47;;;18.30;100.00
64080;BME280;51042;49.696;10.808;2023-06-22T01:44:40;98516.94;;;18.25;100.00
64080;BME280;51042;49.696;10.808;2023-06-22T01:47:05;98539.38;;;18.22;100.00
64080;BME280;51042;49.696;10.808;2023-06-22T01:49:32;98550.19;;;18.20;100.00
64080;BME280;51042;49.696;10.808;2023-06-22T01:51:58;98549.91;;;18.18;100.00
64080;BME280;51042;49.696;10.808;2023-06-22T01:54:23;98549.91;;;18.18;100.00
64080;BME280;51042;49.696;10.808;2023-06-22T01:56:48;98564.28;;;18.16;100.00
64080;BME280;51042;49.696;10.808;2023-06-22T01:59:16;98562.75;;;18.15;100.00
64080;BME280;51042;49.696;10.808;2023-06-22T02:01:52;98563.53;;;18.16;100.00
64080;BME280;51042;49.696;10.808;2023-06-22T02:04:24;98577.69;;;18.18;100.00
64080;BME280;51042;49.696;10.808;2023-06-22T02:06:55;98577.22;;;18.19;100.00
64080;BME280;51042;49.696;10.808;2023-06-22T02:09:23;98577.97;;;18.20;100.00
64080;BME280;51042;49.696;10.808;2023-06-22T02:11:53;98585.34;;;18.23;100.00
64080;BME280;51042;49.696;10.808;2023-06-22T02:14:21;98574.72;;;18.21;100.00
64080;BME280;51042;49.696;10.808;2023-06-22T02:16:47;98557.00;;;18.19;100.00
64080;BME280;51042;49.696;10.808;2023-06-22T02:19:12;98556.72;;;18.17;100.00
64080;BME280;51042;49.696;10.808;2023-06-22T02:21:43;98569.63;;;18.20;100.00
64080;BME280;51042;49.696;10.808;2023-06-22T02:24:08;98584.09;;;18.24;100.00
64080;BME280;51042;49.696;10.808;2023-06-22T02:26:34;98591.84;;;18.34;100.00
64080;BME280;51042;49.696;10.808;2023-06-22T02:28:59;98592.19;;;18.42;100.00
64080;BME280;51042;49.696;10.808;2023-06-22T02:31:25;98619.03;;;18.45;100.00
64080;BME280;51042;49.696;10.808;2023-06-22T02:33:55;98679.09;;;18.43;100.00
64080;BME280;51042;49.696;10.808;2023-06-22T02:36:22;98747.44;;;18.34;100.00
64080;BME280;51042;49.696;10.808;2023-06-22T02:38:48;98818.22;;;18.24;100.00
64080;BME280;51042;49.696;10.808;2023-06-22T02:41:14;98844.88;;;18.16;100.00
64080;BME280;51042;49.696;10.808;2023-06-22T02:43:46;98810.75;;;18.16;100.00
64080;BME280;51042;49.696;10.808;2023-06-22T02:46:12;98747.91;;;18.18;100.00
64080;BME280;51042;49.696;10.808;2023-06-22T02:48:41;98766.81;;;18.29;100.00
64080;BME280;51042;49.696;10.808;2023-06-22T02:51:07;98760.19;;;18.41;100.00
64080;BME280;51042;49.696;10.808;2023-06-22T02:53:33;98745.44;;;18.50;100.00
64080;BME280;51042;49.696;10.808;2023-06-22T02:55:59;98734.44;;;18.55;100.00
64080;BME280;51042;49.696;10.808;2023-06-22T02:58:26;98723.88;;;18.59;100.00
64080;BME280;51042;49.696;10.808;2023-06-22T03:00:52;98718.59;;;18.61;100.00
64080;BME280;51042;49.696;10.808;2023-06-22T03:03:18;98714.03;;;18.58;100.00
64080;BME280;51042;49.696;10.808;2023-06-22T03:05:43;98722.97;;;18.53;100.00
64080;BME280;51042;49.696;10.808;2023-06-22T03:08:09;98713.13;;;18.52;100.00
64080;BME280;51042;49.696;10.808;2023-06-22T03:10:34;98708.13;;;18.42;100.00
64080;BME280;51042;49.696;10.808;2023-06-22T03:12:59;98697.44;;;18.34;100.00
64080;BME280;51042;49.696;10.808;2023-06-22T03:15:25;98683.94;;;18.27;100.00
64080;BME280;51042;49.696;10.808;2023-06-22T03:17:51;98675.00;;;18.38;100.00
64080;BME280;51042;49.696;10.808;2023-06-22T03:20:16;98664.44;;;18.42;100.00
64080;BME280;51042;49.696;10.808;2023-06-22T03:22:41;98653.72;;;18.50;100.00
64080;BME280;51042;49.696;10.808;2023-06-22T03:25:07;98643.75;;;18.43;100.00
64080;BME280;51042;49.696;10.808;2023-06-22T03:27:40;98636.56;;;18.36;100.00
64080;BME280;51042;49.696;10.808;2023-06-22T03:30:07;98623.91;;;18.35;100.00
64080;BME280;51042;49.696;10.808;2023-06-22T03:32:33;98626.13;;;18.31;100.00
64080;BME280;51042;49.696;10.808;2023-06-22T03:34:59;98620.72;;;18.22;100.00
64080;BME280;51042;49.696;10.808;2023-06-22T03:37:24;98603.66;;;18.15;100.00
64080;BME280;51042;49.696;10.808;2023-06-22T03:39:51;98602.59;;;18.12;100.00
64080;BME280;51042;49.696;10.808;2023-06-22T03:42:16;98594.09;;;18.16;100.00
64080;BME280;51042;49.696;10.808;2023-06-22T03:44:42;98588.63;;;18.21;100.00
64080;BME280;51042;49.696;10.808;2023-06-22T03:47:07;98586.22;;;18.29;100.00
64080;BME280;51042;49.696;10.808;2023-06-22T03:49:33;98578.06;;;18.25;100.00
64080;BME280;51042;49.696;10.808;2023-06-22T03:51:59;98568.47;;;18.26;100.00
64080;BME280;51042;49.696;10.808;2023-06-22T03:54:25;98570.56;;;18.31;100.00
64080;BME280;51042;49.696;10.808;2023-06-22T03:56:51;98566.91;;;18.40;100.00
64080;BME280;51042;49.696;10.808;2023-06-22T03:59:16;98561.63;;;18.42;100.00
64080;BME280;51042;49.696;10.808;2023-06-22T04:01:41;98556.13;;;18.48;100.00
64080;BME280;51042;49.696;10.808;2023-06-22T04:04:06;98550.50;;;18.57;100.00
64080;BME280;51042;49.696;10.808;2023-06-22T04:06:32;98550.28;;;18.60;100.00
64080;BME280;51042;49.696;10.808;2023-06-22T04:08:58;98547.69;;;18.77;100.00
64080;BME280;51042;49.696;10.808;2023-06-22T04:11:25;98547.00;;;19.02;100.00
64080;BME280;51042;49.696;10.808;2023-06-22T04:13:51;98554.72;;;19.59;100.00
64080;BME280;51042;49.696;10.808;2023-06-22T04:16:16;98549.69;;;19.94;100.00
64080;BME280;51042;49.696;10.808;2023-06-22T04:18:41;98543.66;;;20.38;100.00
64080;BME280;51042;49.696;10.808;2023-06-22T04:21:07;98535.81;;;20.85;100.00
64080;BME280;51042;49.696;10.808;2023-06-22T04:23:32;98549.56;;;21.11;100.00
64080;BME280;51042;49.696;10.808;2023-06-22T04:25:57;98550.41;;;21.34;100.00
64080;BME280;51042;49.696;10.808;2023-06-22T04:28:24;98539.53;;;21.69;100.00
64080;BME280;51042;49.696;10.808;2023-06-22T04:30:49;98527.88;;;21.65;100.00
64080;BME280;51042;49.696;10.808;2023-06-22T04:33:15;98524.31;;;21.81;100.00
64080;BME280;51042;49.696;10.808;2023-06-22T04:35:42;98511.59;;;21.41;100.00
64080;BME280;51042;49.696;10.808;2023-06-22T04:38:11;98507.63;;;20.77;100.00
64080;BME280;51042;49.696;10.808;2023-06-22T04:40:38;98508.53;;;20.58;100.00
64080;BME280;51042;49.696;10.808;2023-06-22T04:43:04;98518.72;;;20.61;100.00
64080;BME280;51042;49.696;10.808;2023-06-22T04:45:31;98516.72;;;20.72;100.00
64080;BME280;51042;49.696;10.808;2023-06-22T04:47:56;98517.19;;;21.36;100.00
64080;BME280;51042;49.696;10.808;2023-06-22T04:50:21;98515.63;;;22.46;100.00
64080;BME280;51042;49.696;10.808;2023-06-22T04:52:48;98504.28;;;23.67;97.23
64080;BME280;51042;49.696;10.808;2023-06-22T04:55:14;98514.94;;;24.77;87.17
64080;BME280;51042;49.696;10.808;2023-06-22T04:57:46;98515.56;;;25.45;84.28
64080;BME280;51042;49.696;10.808;2023-06-22T05:00:18;98519.16;;;26.22;79.57
64080;BME280;51042;49.696;10.808;2023-06-22T05:02:48;98525.44;;;27.54;72.96
64080;BME280;51042;49.696;10.808;2023-06-22T05:05:13;98514.22;;;27.83;69.05
64080;BME280;51042;49.696;10.808;2023-06-22T05:07:40;98519.06;;;27.75;69.66
64080;BME280;51042;49.696;10.808;2023-06-22T05:10:08;98503.28;;;28.21;66.29
64080;BME280;51042;49.696;10.808;2023-06-22T05:12:36;98504.53;;;28.12;66.74
64080;BME280;51042;49.696;10.808;2023-06-22T05:15:01;98519.31;;;28.26;66.24
64080;BME280;51042;49.696;10.808;2023-06-22T05:17:27;98518.50;;;29.10;64.73
64080;BME280;51042;49.696;10.808;2023-06-22T05:19:53;98520.22;;;29.21;62.09
64080;BME280;51042;49.696;10.808;2023-06-22T05:22:18;98515.28;;;29.80;60.80
64080;BME280;51042;49.696;10.808;2023-06-22T05:24:44;98510.75;;;29.77;61.06
64080;BME280;51042;49.696;10.808;2023-06-22T05:27:10;98506.97;;;29.01;62.15
64080;BME280;51042;49.696;10.808;2023-06-22T05:29:36;98507.53;;;28.99;62.41
64080;BME280;51042;49.696;10.808;2023-06-22T05:32:01;98497.13;;;28.58;63.20
64080;BME280;51042;49.696;10.808;2023-06-22T05:34:27;98512.31;;;27.98;65.58
64080;BME280;51042;49.696;10.808;2023-06-22T05:36:52;98510.53;;;28.37;65.14
64080;BME280;51042;49.696;10.808;2023-06-22T05:39:17;98515.59;;;28.10;64.46
64080;BME280;51042;49.696;10.808;2023-06-22T05:41:44;98502.47;;;27.71;65.58
64080;BME280;51042;49.696;10.808;2023-06-22T05:44:10;98506.59;;;27.15;68.53
64080;BME280;51042;49.696;10.808;2023-06-22T05:46:35;98514.53;;;27.04;68.52
64080;BME280;51042;49.696;10.808;2023-06-22T05:49:00;98515.22;;;27.65;66.97
64080;BME280;51042;49.696;10.808;2023-06-22T05:51:26;98516.22;;;27.95;64.25
64080;BME280;51042;49.696;10.808;2023-06-22T05:53:51;98513.75;;;27.92;64.42
64080;BME280;51042;49.696;10.808;2023-06-22T05:56:16;98516.94;;;28.37;62.69
64080;BME280;51042;49.696;10.808;2023-06-22T05:58:42;98514.38;;;28.75;61.52
64080;BME280;51042;49.696;10.808;2023-06-22T06:01:07;98509.13;;;28.51;62.41
64080;BME280;51042;49.696;10.808;2023-06-22T06:03:33;98512.75;;;28.31;63.12
64080;BME280;51042;49.696;10.808;2023-06-22T06:05:58;98515.19;;;28.84;61.82
64080;BME280;51042;49.696;10.808;2023-06-22T06:08:23;98510.94;;;29.05;60.51
64080;BME280;51042;49.696;10.808;2023-06-22T06:10:49;98512.41;;;28.63;61.28
64080;BME280;51042;49.696;10.808;2023-06-22T06:13:14;98517.19;;;29.11;60.88
64080;BME280;51042;49.696;10.808;2023-06-22T06:15:39;98516.25;;;29.16;59.68
64080;BME280;51042;49.696;10.808;2023-06-22T06:18:05;98521.25;;;29.39;59.73
64080;BME280;51042;49.696;10.808;2023-06-22T06:20:31;98513.22;;;29.81;58.75
64080;BME280;51042;49.696;10.808;2023-06-22T06:22:57;98517.56;;;30.35;56.74
64080;BME280;51042;49.696;10.808;2023-06-22T06:25:23;98510.09;;;30.85;55.71
64080;BME280;51042;49.696;10.808;2023-06-22T06:27:49;98510.59;;;31.06;54.06
64080;BME280;51042;49.696;10.808;2023-06-22T06:30:17;98513.09;;;30.87;54.80
64080;BME280;51042;49.696;10.808;2023-06-22T06:32:43;98502.50;;;29.94;56.89
64080;BME280;51042;49.696;10.808;2023-06-22T06:35:10;98500.59;;;30.05;58.58
64080;BME280;51042;49.696;10.808;2023-06-22T06:37:37;98491.16;;;30.32;56.26
64080;BME280;51042;49.696;10.808;2023-06-22T06:40:07;98497.75;;;29.82;57.58
64080;BME280;51042;49.696;10.808;2023-06-22T06:42:35;98493.19;;;28.61;61.98
64080;BME280;51042;49.696;10.808;2023-06-22T06:45:07;98482.81;;;28.56;61.55
64080;BME280;51042;49.696;10.808;2023-06-22T06:47:33;98489.03;;;28.26;63.06
64080;BME280;51042;49.696;10.808;2023-06-22T06:49:58;98481.47;;;29.37;59.90
64080;BME280;51042;49.696;10.808;2023-06-22T06:52:24;98482.31;;;28.37;61.75
64080;BME280;51042;49.696;10.808;2023-06-22T06:54:50;98480.75;;;26.64;68.02
64080;BME280;51042;49.696;10.808;2023-06-22T06:57:16;98479.81;;;25.77;72.78
64080;BME280;51042;49.696;10.808;2023-06-22T06:59:42;98470.78;;;25.34;76.98
64080;BME280;51042;49.696;10.808;2023-06-22T07:02:08;98476.88;;;25.19;76.76
64080;BME280;51042;49.696;10.808;2023-06-22T07:04:33;98467.06;;;24.88;78.44
64080;BME280;51042;49.696;10.808;2023-06-22T07:07:00;98468.25;;;24.55;79.64
64080;BME280;51042;49.696;10.808;2023-06-22T07:09:27;98461.94;;;24.49;80.12
64080;BME280;51042;49.696;10.808;2023-06-22T07:11:53;98473.25;;;24.62;79.91
64080;BME280;51042;49.696;10.808;2023-06-22T07:14:19;98459.94;;;24.87;78.76
64080;BME280;51042;49.696;10.808;2023-06-22T07:16:45;98465.72;;;24.95;79.04
64080;BME280;51042;49.696;10.808;2023-06-22T07:19:11;98455.19;;;25.01;77.81
64080;BME280;51042;49.696;10.808;2023-06-22T07:21:38;98456.22;;;25.16;78.03
64080;BME280;51042;49.696;10.808;2023-06-22T07:24:04;98453.34;;;25.54;74.55
64080;BME280;51042;49.696;10.808;2023-06-22T07:26:30;98452.03;;;25.74;73.50
64080;BME280;51042;49.696;10.808;2023-06-22T07:28:56;98457.81;;;25.63;74.81
64080;BME280;51042;49.696;10.808;2023-06-22T07:31:23;98455.38;;;25.53;73.60
64080;BME280;51042;49.696;10.808;2023-06-22T07:33:49;98432.66;;;25.70;71.67
64080;BME280;51042;49.696;10.808;2023-06-22T07:36:14;98441.44;;;25.80;70.93
64080;BME280;51042;49.696;10.808;2023-06-22T07:38:41;98442.00;;;25.91;71.95
64080;BME280;51042;49.696;10.808;2023-06-22T07:41:06;98435.47;;;25.83;70.13
64080;BME280;51042;49.696;10.808;2023-06-22T07:43:32;98451.22;;;25.60;70.43
64080;BME280;51042;49.696;10.808;2023-06-22T07:45:59;98429.84;;;25.83;70.35
64080;BME280;51042;49.696;10.808;2023-06-22T07:48:24;98440.41;;;26.35;68.07
64080;BME280;51042;49.696;10.808;2023-06-22T07:50:49;98442.41;;;26.74;67.71
64080;BME280;51042;49.696;10.808;2023-06-22T07:53:15;98437.09;;;26.71;66.29
64080;BME280;51042;49.696;10.808;2023-06-22T07:55:40;98441.69;;;26.48;66.29
64080;BME280;51042;49.696;10.808;2023-06-22T07:58:05;98441.16;;;26.10;64.59
64080;BME280;51042;49.696;10.808;2023-06-22T08:00:31;98438.22;;;26.28;66.51
64080;BME280;51042;49.696;10.808;2023-06-22T08:02:58;98437.81;;;26.24;66.16
64080;BME280;51042;49.696;10.808;2023-06-22T08:05:23;98449.25;;;26.66;64.36
64080;BME280;51042;49.696;10.808;2023-06-22T08:07:49;98454.22;;;26.73;63.37
64080;BME280;51042;49.696;10.808;2023-06-22T08:10:15;98450.41;;;26.70;63.80
64080;BME280;51042;49.696;10.808;2023-06-22T08:12:41;98447.88;;;27.06;63.15
64080;BME280;51042;49.696;10.808;2023-06-22T08:15:07;98450.28;;;27.23;62.71
64080;BME280;51042;49.696;10.808;2023-06-22T08:17:33;98449.78;;;27.45;61.61
64080;BME280;51042;49.696;10.808;2023-06-22T08:19:58;98446.19;;;27.45;61.18
64080;BME280;51042;49.696;10.808;2023-06-22T08:22:24;98439.97;;;27.05;61.93
64080;BME280;51042;49.696;10.808;2023-06-22T08:24:49;98436.72;;;27.01;62.63
64080;BME280;51042;49.696;10.808;2023-06-22T08:27:14;98435.06;;;27.39;60.84
64080;BME280;51042;49.696;10.808;2023-06-22T08:29:41;98430.03;;;27.87;59.76
64080;BME280;51042;49.696;10.808;2023-06-22T08:32:10;98436.97;;;28.35;57.06
64080;BME280;51042;49.696;10.808;2023-06-22T08:34:36;98424.81;;;28.19;58.26
64080;BME280;51042;49.696;10.808;2023-06-22T08:37:01;98428.38;;;28.48;58.20
64080;BME280;51042;49.696;10.808;2023-06-22T08:39:31;98420.59;;;27.84;57.15
64080;BME280;51042;49.696;10.808;2023-06-22T08:41:56;98420.25;;;27.88;58.16
64080;BME280;51042;49.696;10.808;2023-06-22T08:44:22;98414.25;;;27.91;58.07
64080;BME280;51042;49.696;10.808;2023-06-22T08:46:47;98409.47;;;27.79;58.54
64080;BME280;51042;49.696;10.808;2023-06-22T08:49:12;98405.56;;;27.82;58.88
64080;BME280;51042;49.696;10.808;2023-06-22T08:51:38;98395.94;;;28.06;58.96
64080;BME280;51042;49.696;10.808;2023-06-22T08:54:03;98400.91;;;28.20;58.12
64080;BME280;51042;49.696;10.808;2023-06-22T08:56:28;98401.47;;;28.19;58.41
64080;BME280;51042;49.696;10.808;2023-06-22T08:58:53;98393.28;;;28.08;57.17
64080;BME280;51042;49.696;10.808;2023-06-22T09:01:19;98388.63;;;27.82;58.69
64080;BME280;51042;49.696;10.808;2023-06-22T09:03:44;98386.97;;;28.15;57.40
64080;BME280;51042;49.696;10.808;2023-06-22T09:06:18;98386.53;;;28.90;56.18
64080;BME280;51042;49.696;10.808;2023-06-22T09:08:44;98387.16;;;29.11;52.83
64080;BME280;51042;49.696;10.808;2023-06-22T09:11:09;98387.59;;;28.72;55.22
64080;BME280;51042;49.696;10.808;2023-06-22T09:13:34;98390.13;;;28.91;53.88
64080;BME280;51042;49.696;10.808;2023-06-22T09:16:00;98385.00;;;28.74;54.47
64080;BME280;51042;49.696;10.808;2023-06-22T09:18:25;98386.13;;;28.78;55.18
64080;BME280;51042;49.696;10.808;2023-06-22T09:20:50;98377.56;;;29.30;51.51
64080;BME280;51042;49.696;10.808;2023-06-22T09:23:16;98384.88;;;29.10;52.05
64080;BME280;51042;49.696;10.808;2023-06-22T09:25:41;98373.56;;;29.10;51.87
64080;BME280;51042;49.696;10.808;2023-06-22T09:28:07;98375.31;;;29.89;51.71
64080;BME280;51042;49.696;10.808;2023-06-22T09:30:32;98363.50;;;30.38;50.21
64080;BME280;51042;49.696;10.808;2023-06-22T09:32:57;98356.88;;;30.35;50.09
64080;BME280;51042;49.696;10.808;2023-06-22T09:35:22;98354.94;;;29.90;50.08
64080;BME280;51042;49.696;10.808;2023-06-22T09:37:48;98352.94;;;30.31;48.75
64080;BME280;51042;49.696;10.808;2023-06-22T09:40:13;98353.28;;;30.35;49.04
64080;BME280;51042;49.696;10.808;2023-06-22T09:42:41;98353.31;;;30.75;48.27
64080;BME280;51042;49.696;10.808;2023-06-22T09:45:07;98357.69;;;31.01;48.63
64080;BME280;51042;49.696;10.808;2023-06-22T09:47:32;98369.44;;;31.30;47.90
64080;BME280;51042;49.696;10.808;2023-06-22T09:49:58;98359.69;;;30.51;48.35
64080;BME280;51042;49.696;10.808;2023-06-22T09:52:24;98365.16;;;30.56;50.17
64080;BME280;51042;49.696;10.808;2023-06-22T09:54:50;98368.84;;;30.74;48.34
64080;BME280;51042;49.696;10.808;2023-06-22T09:57:15;98377.00;;;29.99;50.42
64080;BME280;51042;49.696;10.808;2023-06-22T09:59:40;98369.41;;;30.10;50.26
64080;BME280;51042;49.696;10.808;2023-06-22T10:02:06;98355.00;;;30.38;49.50
64080;BME280;51042;49.696;10.808;2023-06-22T10:04:32;98356.28;;;30.52;49.26
64080;BME280;51042;49.696;10.808;2023-06-22T10:06:57;98360.44;;;30.43;48.84
64080;BME280;51042;49.696;10.808;2023-06-22T10:09:23;98358.34;;;30.52;48.37
64080;BME280;51042;49.696;10.808;2023-06-22T10:11:48;98358.78;;;31.38;47.16
64080;BME280;51042;49.696;10.808;2023-06-22T10:14:13;98353.88;;;31.38;47.42
64080;BME280;51042;49.696;10.808;2023-06-22T10:16:39;98356.03;;;31.47;47.64
64080;BME280;51042;49.696;10.808;2023-06-22T10:19:06;98344.66;;;31.30;48.43
64080;BME280;51042;49.696;10.808;2023-06-22T10:21:31;98348.34;;;31.65;47.59
64080;BME280;51042;49.696;10.808;2023-06-22T10:23:57;98350.91;;;31.29;48.55
64080;BME280;51042;49.696;10.808;2023-06-22T10:26:24;98353.00;;;31.28;48.06
64080;BME280;51042;49.696;10.808;2023-06-22T10:28:49;98360.38;;;31.73;47.66
64080;BME280;51042;49.696;10.808;2023-06-22T10:31:15;98358.44;;;32.79;45.70
64080;BME280;51042;49.696;10.808;2023-06-22T10:33:42;98348.97;;;31.98;45.17
64080;BME280;51042;49.696;10.808;2023-06-22T10:36:09;98345.88;;;31.86;46.12
64080;BME280;51042;49.696;10.808;2023-06-22T10:38:35;98344.72;;;32.07;45.71
64080;BME280;51042;49.696;10.808;2023-06-22T10:41:01;98339.34;;;32.45;46.33
64080;BME280;51042;49.696;10.808;2023-06-22T10:43:26;98341.97;;;32.33;45.69
64080;BME280;51042;49.696;10.808;2023-06-22T10:45:51;98340.81;;;32.80;44.79
64080;BME280;51042;49.696;10.808;2023-06-22T10:48:16;98342.59;;;32.76;44.05
64080;BME280;51042;49.696;10.808;2023-06-22T10:50:42;98337.69;;;32.86;42.99
64080;BME280;51042;49.696;10.808;2023-06-22T10:53:07;98327.75;;;33.41;43.60
64080;BME280;51042;49.696;10.808;2023-06-22T10:55:32;98324.75;;;33.02;42.22
64080;BME280;51042;49.696;10.808;2023-06-22T10:57:58;98323.06;;;31.94;43.59
64080;BME280;51042;49.696;10.808;2023-06-22T11:00:23;98321.91;;;32.31;44.71
64080;BME280;51042;49.696;10.808;2023-06-22T11:02:48;98313.91;;;33.18;42.25
64080;BME280;51042;49.696;10.808;2023-06-22T11:05:14;98314.63;;;32.82;43.23
64080;BME280;51042;49.696;10.808;2023-06-22T11:07:42;98315.91;;;32.71;43.56
64080;BME280;51042;49.696;10.808;2023-06-22T11:10:09;98313.97;;;32.74;44.60
64080;BME280;51042;49.696;10.808;2023-06-22T11:12:34;98305.28;;;33.45;44.02
64080;BME280;51042;49.696;10.808;2023-06-22T11:15:00;98304.47;;;33.25;42.69
64080;BME280;51042;49.696;10.808;2023-06-22T11:17:26;98304.03;;;32.65;43.52
64080;BME280;51042;49.696;10.808;2023-06-22T11:19:51;98292.13;;;32.50;43.76
64080;BME280;51042;49.696;10.808;2023-06-22T11:22:16;98282.13;;;33.12;43.38
64080;BME280;51042;49.696;10.808;2023-06-22T11:24:42;98290.19;;;32.69;43.75
64080;BME280;51042;49.696;10.808;2023-06-22T11:27:07;98280.31;;;32.26;44.94
64080;BME280;51042;49.696;10.808;2023-06-22T11:29:32;98284.50;;;32.08;45.02
64080;BME280;51042;49.696;10.808;2023-06-22T11:31:58;98283.41;;;32.03;45.27
64080;BME280;51042;49.696;10.808;2023-06-22T11:34:23;98271.63;;;33.05;43.71
64080;BME280;51042;49.696;10.808;2023-06-22T11:36:49;98269.19;;;33.01;43.61
64080;BME280;51042;49.696;10.808;2023-06-22T11:39:15;98263.34;;;33.36;43.30
64080;BME280;51042;49.696;10.808;2023-06-22T11:41:40;98251.25;;;33.08;44.03
64080;BME280;51042;49.696;10.808;2023-06-22T11:44:06;98263.66;;;33.49;42.91
64080;BME280;51042;49.696;10.808;2023-06-22T11:46:32;98266.78;;;33.25;44.25
64080;BME280;51042;49.696;10.808;2023-06-22T11:48:57;98262.81;;;33.85;42.58
64080;BME280;51042;49.696;10.808;2023-06-22T11:51:23;98259.84;;;34.62;42.20
64080;BME280;51042;49.696;10.808;2023-06-22T11:53:48;98250.94;;;34.87;41.37
64080;BME280;51042;49.696;10.808;2023-06-22T11:56:13;98236.59;;;33.77;42.13
64080;BME280;51042;49.696;10.808;2023-06-22T11:58:39;98238.03;;;33.49;42.69
64080;BME280;51042;49.696;10.808;2023-06-22T12:01:04;98230.72;;;34.04;41.98
64080;BME280;51042;49.696;10.808;2023-06-22T12:03:30;98236.56;;;33.68;42.92
64080;BME280;51042;49.696;10.808;2023-06-22T12:05:55;98228.31;;;34.10;41.76
64080;BME280;51042;49.696;10.808;2023-06-22T12:08:21;98223.06;;;34.76;41.55
64080;BME280;51042;49.696;10.808;2023-06-22T12:10:46;98227.25;;;35.79;39.46
64080;BME280;51042;49.696;10.808;2023-06-22T12:13:11;98211.31;;;34.41;40.87
64080;BME280;51042;49.696;10.808;2023-06-22T12:15:37;98219.63;;;33.50;43.02
64080;BME280;51042;49.696;10.808;2023-06-22T12:18:03;98208.25;;;33.60;42.54
64080;BME280;51042;49.696;10.808;2023-06-22T12:20:28;98197.78;;;32.97;43.41
64080;BME280;51042;49.696;10.808;2023-06-22T12:22:53;98184.03;;;33.03;43.32
64080;BME280;51042;49.696;10.808;2023-06-22T12:25:21;98171.44;;;32.97;43.86
64080;BME280;51042;49.696;10.808;2023-06-22T12:27:47;98172.13;;;33.62;43.19
64080;BME280;51042;49.696;10.808;2023-06-22T12:30:12;98168.41;;;33.60;42.45
64080;BME280;51042;49.696;10.808;2023-06-22T12:32:37;98167.66;;;33.40;43.07
64080;BME280;51042;49.696;10.808;2023-06-22T12:35:03;98176.03;;;33.29;43.49
64080;BME280;51042;49.696;10.808;2023-06-22T12:37:29;98162.38;;;33.27;42.86
64080;BME280;51042;49.696;10.808;2023-06-22T12:39:56;98165.09;;;33.63;42.98
64080;BME280;51042;49.696;10.808;2023-06-22T12:42:22;98169.59;;;33.76;42.22
64080;BME280;51042;49.696;10.808;2023-06-22T12:44:47;98165.19;;;34.14;41.21